Time;durP1;ratioP1;P1;durP2;ratioP2;P2;SDS_P1;SDS_P2;PMS_P1;PMS_P2;Temp;Humidity;BMP_temperature;BMP_pressure;BME280_temperature;BME280_humidity;BME280_pressure;Samples;Min_cycle;Max_cycle;Signal;HPM_P1;HPM_P2
2022/09/14 00:00:58;;;;;;;2.75;1.70;;;;;;;10.20;100.00;99949.24;1749154;82;21003;-38
2022/09/14 00:03:25;;;;;;;2.85;1.62;;;;;;;10.21;100.00;99954.81;1749467;82;21631;-38
2022/09/14 00:05:51;;;;;;;4.03;1.50;;;;;;;10.23;100.00;99956.09;1749247;81;22149;-37
2022/09/14 00:08:18;;;;;;;2.30;2.00;;;;;;;10.23;100.00;99956.09;1721693;82;21023;-37
2022/09/14 00:10:45;;;;;;;1.90;1.50;;;;;;;10.23;100.00;99955.22;1721981;82;21426;-38
2022/09/14 00:13:14;;;;;;;4.03;1.80;;;;;;;10.24;100.00;99953.04;1749242;82;21560;-38
2022/09/14 00:15:45;;;;;;;4.05;1.90;;;;;;;10.24;100.00;99957.78;1749188;82;20889;-37
2022/09/14 00:18:10;;;;;;;4.92;1.85;;;;;;;10.24;100.00;99959.51;1749621;81;21198;-37
2022/09/14 00:20:37;;;;;;;1.90;1.80;;;;;;;10.24;100.00;99959.08;1749275;82;20861;-38
2022/09/14 00:23:04;;;;;;;1.70;1.60;;;;;;;10.24;100.00;99957.78;1749318;82;20984;-37
2022/09/14 00:25:31;;;;;;;1.82;1.62;;;;;;;10.26;100.00;99957.30;1749196;82;20982;-37
2022/09/14 00:27:58;;;;;;;4.20;1.70;;;;;;;10.26;100.00;99956.01;1749330;82;20971;-37
2022/09/14 00:30:25;;;;;;;2.98;1.45;;;;;;;10.28;100.00;99953.36;1749358;82;21246;-37
2022/09/14 00:32:52;;;;;;;4.40;2.00;;;;;;;10.28;100.00;99954.66;1749216;81;20929;-38
2022/09/14 00:35:19;;;;;;;1.70;1.60;;;;;;;10.27;100.00;99952.53;1738345;82;21223;-38
2022/09/14 00:37:49;;;;;;;1.50;1.40;;;;;;;10.27;100.00;99955.12;1719383;83;20951;-38
2022/09/14 00:40:17;;;;;;;6.33;1.40;;;;;;;10.27;100.00;99958.13;1719851;83;20896;-38
2022/09/14 00:42:44;;;;;;;8.83;1.50;;;;;;;10.27;100.00;99952.53;1719795;83;22012;-37
2022/09/14 00:45:17;;;;;;;1.82;1.60;;;;;;;10.27;100.00;99958.13;1719420;83;20940;-38
2022/09/14 00:47:44;;;;;;;4.53;1.35;;;;;;;10.27;100.00;99954.25;1719835;83;21466;-37
2022/09/14 00:50:11;;;;;;;5.03;1.45;;;;;;;10.27;100.00;99962.02;1719569;83;20893;-37
2022/09/14 00:52:41;;;;;;;4.70;1.47;;;;;;;10.26;100.00;99953.85;1719576;82;21592;-37
2022/09/14 00:55:12;;;;;;;1.92;1.27;;;;;;;10.25;100.00;99961.20;1719578;83;21187;-37
2022/09/14 00:57:43;;;;;;;2.12;1.35;;;;;;;10.25;100.00;99959.48;1719389;83;21701;-38
2022/09/14 01:00:11;;;;;;;3.55;2.10;;;;;;;10.26;100.00;99961.18;1719623;83;20948;-38
2022/09/14 01:02:38;;;;;;;3.83;1.20;;;;;;;10.25;100.00;99947.84;1719732;83;21560;-37
2022/09/14 01:05:09;;;;;;;2.72;1.45;;;;;;;10.25;100.00;99946.55;1693079;83;20921;-37
2022/09/14 01:08:07;;;;;;;5.30;1.50;;;;;;;10.28;100.00;99954.23;1720053;83;21203;-37
2022/09/14 01:11:04;;;;;;;5.30;0.95;;;;;;;10.30;100.00;99951.59;1719629;83;21003;-38
2022/09/14 01:13:52;;;;;;;5.58;1.70;;;;;;;10.30;100.00;99947.70;1719550;83;20991;-38
2022/09/14 01:16:36;;;;;;;3.05;1.50;;;;;;;10.31;100.00;99952.86;1706093;83;21011;-38
2022/09/14 01:19:08;;;;;;;5.67;1.75;;;;;;;10.33;100.00;99954.09;1718273;83;21015;-37
2022/09/14 01:21:40;;;;;;;5.15;2.15;;;;;;;10.35;100.00;99944.55;1719680;83;21138;-38
2022/09/14 01:24:28;;;;;;;2.12;2.00;;;;;;;10.37;100.00;99947.11;1693047;83;20932;-37
2022/09/14 01:27:22;;;;;;;4.17;2.22;;;;;;;10.39;100.00;99956.97;1719685;83;21359;-38
2022/09/14 01:30:14;;;;;;;4.00;2.10;;;;;;;10.40;100.00;99956.08;1719668;82;20904;-38
2022/09/14 01:32:50;;;;;;;2.62;2.05;;;;;;;10.41;100.00;99952.64;1693434;83;21026;-38
2022/09/14 01:35:30;;;;;;;3.20;2.45;;;;;;;10.43;100.00;99953.02;1718313;83;21261;-38
2022/09/14 01:38:04;;;;;;;3.05;2.85;;;;;;;10.44;100.00;99948.67;1719495;83;21628;-37
2022/09/14 01:40:38;;;;;;;5.42;2.67;;;;;;;10.44;100.00;99950.84;1719509;83;20991;-37
2022/09/14 01:43:29;;;;;;;3.35;3.08;;;;;;;10.44;100.00;99947.37;1719405;83;20943;-37
2022/09/14 01:46:01;;;;;;;6.47;4.08;;;;;;;10.48;100.00;99952.88;1719659;83;21395;-37
2022/09/14 01:48:32;;;;;;;6.80;3.12;;;;;;;10.49;100.00;99948.14;1719294;83;21351;-37
2022/09/14 01:50:59;;;;;;;4.20;3.80;;;;;;;10.48;100.00;99949.86;1719884;83;20963;-38
2022/09/14 01:53:47;;;;;;;4.25;3.37;;;;;;;10.48;100.00;99945.98;1724111;82;21248;-37
2022/09/14 01:56:19;;;;;;;3.15;2.95;;;;;;;10.48;100.00;99952.88;1732077;82;21455;-38
2022/09/14 01:58:56;;;;;;;4.78;3.55;;;;;;;10.47;100.00;99952.47;1732900;82;21455;-38
2022/09/14 02:01:37;;;;;;;4.53;3.70;;;;;;;10.48;100.00;99950.28;1732797;82;21166;-37
2022/09/14 02:04:07;;;;;;;6.03;3.65;;;;;;;10.47;100.00;99947.30;1732987;82;20890;-38
2022/09/14 02:06:38;;;;;;;3.90;3.60;;;;;;;10.44;100.00;99948.67;1732801;82;20940;-38
2022/09/14 02:09:08;;;;;;;5.72;3.70;;;;;;;10.43;100.00;99948.27;1732739;82;21424;-37
2022/09/14 02:11:35;;;;;;;4.42;3.95;;;;;;;10.41;100.00;99944.88;1732899;82;20984;-37
2022/09/14 02:14:03;;;;;;;5.10;3.58;;;;;;;10.41;100.00;99952.21;1732143;82;21120;-37
2022/09/14 02:16:30;;;;;;;3.70;3.17;;;;;;;10.38;100.00;99952.27;1708036;82;20913;-38
2022/09/14 02:19:00;;;;;;;6.50;3.50;;;;;;;10.38;100.00;99955.28;1732836;82;20925;-38
2022/09/14 02:21:29;;;;;;;4.28;3.87;;;;;;;10.34;100.00;99948.89;1732905;82;21010;-37
2022/09/14 02:23:57;;;;;;;7.67;3.95;;;;;;;10.34;100.00;99950.19;1707700;82;21581;-37
2022/09/14 02:26:24;;;;;;;6.70;3.95;;;;;;;10.32;100.00;99957.14;1732851;82;21471;-38
2022/09/14 02:28:54;;;;;;;6.90;3.17;;;;;;;10.33;100.00;99957.55;1732740;82;20937;-38
2022/09/14 02:31:34;;;;;;;3.92;3.52;;;;;;;10.30;100.00;99956.33;1732713;81;20867;-37
2022/09/14 02:34:19;;;;;;;4.03;3.72;;;;;;;10.30;100.00;99963.23;1732580;82;20977;-37
2022/09/14 02:36:57;;;;;;;5.80;4.17;;;;;;;10.28;100.00;99955.95;1732963;82;20913;-38
2022/09/14 02:39:53;;;;;;;5.55;4.45;;;;;;;10.24;100.00;99960.38;1732778;82;21244;-38
2022/09/14 02:42:40;;;;;;;4.97;4.28;;;;;;;10.22;100.00;99958.23;1731780;82;21009;-38
2022/09/14 02:45:21;;;;;;;4.25;3.95;;;;;;;10.19;100.00;99945.38;1732386;82;20972;-38
2022/09/14 02:48:05;;;;;;;6.42;4.00;;;;;;;10.16;100.00;99954.09;1708429;82;20897;-38
2022/09/14 02:50:42;;;;;;;5.10;3.90;;;;;;;10.17;100.00;99958.80;1733120;82;20858;-37
2022/09/14 02:53:33;;;;;;;5.05;4.00;;;;;;;10.14;100.00;99953.70;1731300;82;21260;-37
2022/09/14 02:56:04;;;;;;;8.03;3.95;;;;;;;10.11;100.00;99945.60;1716883;82;20984;-38
2022/09/14 02:58:39;;;;;;;9.90;4.20;;;;;;;10.10;100.00;99949.05;1716879;83;20980;-38
2022/09/14 03:01:08;;;;;;;4.75;4.35;;;;;;;10.10;100.00;99956.80;1696950;83;20963;-38
2022/09/14 03:03:35;;;;;;;4.22;3.90;;;;;;;10.10;100.00;99955.97;1696522;83;20932;-38
2022/09/14 03:06:03;;;;;;;7.00;4.62;;;;;;;10.09;100.00;99952.52;1696334;83;21365;-37
2022/09/14 03:08:29;;;;;;;5.75;4.45;;;;;;;10.10;100.00;99960.68;1716859;82;21012;-38
2022/09/14 03:10:56;;;;;;;7.70;4.70;;;;;;;10.11;100.00;99961.55;1717201;83;20937;-38
2022/09/14 03:13:23;;;;;;;8.60;4.47;;;;;;;10.13;100.00;99962.36;1716913;82;20969;-38
2022/09/14 03:15:50;;;;;;;4.20;3.90;;;;;;;10.13;100.00;99958.48;1717062;83;21679;-38
2022/09/14 03:18:17;;;;;;;8.73;4.05;;;;;;;10.15;100.00;99960.58;1717040;82;21161;-38
2022/09/14 03:20:44;;;;;;;7.12;3.80;;;;;;;10.16;100.00;99956.67;1696435;83;21544;-37
2022/09/14 03:23:11;;;;;;;6.90;4.00;;;;;;;10.16;100.00;99957.10;1717251;83;20940;-38
2022/09/14 03:25:43;;;;;;;5.47;3.72;;;;;;;10.16;100.00;99957.10;1716909;83;21015;-38
2022/09/14 03:28:10;;;;;;;4.85;4.28;;;;;;;10.15;100.00;99955.41;1716948;83;20964;-38
2022/09/14 03:30:37;;;;;;;5.90;4.28;;;;;;;10.16;100.00;99955.38;1716931;83;21256;-38
2022/09/14 03:33:04;;;;;;;4.87;4.10;;;;;;;10.17;100.00;99955.78;1716802;83;20967;-38
2022/09/14 03:35:32;;;;;;;10.30;4.40;;;;;;;10.16;100.00;99956.67;1716827;82;21533;-38
2022/09/14 03:37:59;;;;;;;6.20;4.00;;;;;;;10.17;100.00;99957.51;1716856;83;20971;-37
2022/09/14 03:40:26;;;;;;;4.42;4.03;;;;;;;10.16;100.00;99959.69;1696873;83;21443;-38
2022/09/14 03:42:53;;;;;;;6.25;4.28;;;;;;;10.17;100.00;99970.02;1717118;83;21912;-38
2022/09/14 03:45:20;;;;;;;5.45;4.60;;;;;;;10.17;100.00;99969.14;1716925;83;20905;-38
2022/09/14 03:47:47;;;;;;;5.83;4.10;;;;;;;10.16;100.00;99959.27;1717042;83;20937;-37
2022/09/14 03:50:14;;;;;;;5.72;4.53;;;;;;;10.14;100.00;99963.63;1716946;83;20857;-38
2022/09/14 03:52:41;;;;;;;7.35;4.62;;;;;;;10.12;100.00;99969.71;1716975;83;21500;-38
2022/09/14 03:55:09;;;;;;;5.47;4.90;;;;;;;10.12;100.00;99974.88;1716952;83;21137;-38
2022/09/14 03:57:36;;;;;;;8.30;4.65;;;;;;;10.09;100.00;99965.91;1716882;83;20920;-37
2022/09/14 04:00:05;;;;;;;5.65;4.58;;;;;;;10.09;100.00;99971.08;1716943;82;20883;-38
2022/09/14 04:02:33;;;;;;;7.75;4.40;;;;;;;10.06;100.00;99969.41;1716623;83;20948;-38
2022/09/14 04:05:00;;;;;;;6.25;4.40;;;;;;;10.06;100.00;99971.56;1716966;82;21538;-37
2022/09/14 04:07:27;;;;;;;5.22;4.40;;;;;;;10.06;100.00;99977.16;1716883;83;21166;-38
2022/09/14 04:09:53;;;;;;;5.00;4.35;;;;;;;10.06;100.00;99981.91;1716814;82;20928;-38
2022/09/14 04:12:21;;;;;;;8.55;5.03;;;;;;;10.06;100.00;99990.09;1716901;83;20928;-38
2022/09/14 04:14:48;;;;;;;7.75;4.92;;;;;;;10.05;100.00;99982.80;1717106;83;20980;-38
2022/09/14 04:17:16;;;;;;;6.47;4.75;;;;;;;10.05;100.00;99989.26;1717044;82;20976;-38
2022/09/14 04:19:42;;;;;;;13.45;5.35;;;;;;;10.05;100.00;99989.69;1717060;82;21089;-38
2022/09/14 04:22:09;;;;;;;8.78;5.05;;;;;;;10.05;100.00;99987.97;1717094;83;21542;-38
2022/09/14 04:24:36;;;;;;;6.42;4.90;;;;;;;10.05;100.00;99994.43;1717204;83;20892;-38
2022/09/14 04:27:02;;;;;;;6.75;5.42;;;;;;;10.05;100.00;99986.67;1716855;82;20968;-38
2022/09/14 04:29:29;;;;;;;6.70;5.30;;;;;;;10.05;100.00;99990.55;1717082;83;21494;-38
2022/09/14 04:31:56;;;;;;;9.05;5.80;;;;;;;10.06;100.00;99994.84;1717066;83;21856;-38
2022/09/14 04:34:24;;;;;;;6.17;5.37;;;;;;;10.05;100.00;100002.19;1662648;85;21529;-38
2022/09/14 04:36:51;;;;;;;6.80;5.60;;;;;;;10.06;100.00;100006.47;1682235;85;21055;-38
2022/09/14 04:39:18;;;;;;;14.10;5.47;;;;;;;10.06;100.00;100003.89;1677042;85;20952;-38
2022/09/14 04:41:45;;;;;;;9.78;6.47;;;;;;;10.06;100.00;99998.72;1677093;85;21016;-38
2022/09/14 04:44:11;;;;;;;11.93;5.67;;;;;;;10.06;100.00;99996.13;1676905;85;21081;-38
2022/09/14 04:46:41;;;;;;;8.33;5.65;;;;;;;10.05;100.00;99999.61;1657445;85;21023;-38
2022/09/14 04:49:08;;;;;;;8.05;6.03;;;;;;;10.07;100.00;99999.55;1677190;85;20905;-38
2022/09/14 04:51:36;;;;;;;8.95;5.92;;;;;;;10.05;100.00;100000.90;1657428;85;21000;-39
2022/09/14 04:54:04;;;;;;;8.20;6.12;;;;;;;10.05;100.00;100004.78;1680354;84;20960;-38
2022/09/14 04:56:33;;;;;;;15.38;6.05;;;;;;;10.05;100.00;100011.23;1695164;84;21400;-38
2022/09/14 04:59:03;;;;;;;6.55;5.92;;;;;;;10.05;100.00;100007.36;1669170;84;21007;-38
2022/09/14 05:01:39;;;;;;;7.67;6.33;;;;;;;10.04;100.00;100006.95;1666007;86;21398;-38
2022/09/14 05:04:07;;;;;;;9.73;7.00;;;;;;;10.04;100.00;100005.66;1695170;83;20904;-38
2022/09/14 05:06:36;;;;;;;11.55;6.25;;;;;;;10.04;100.00;100003.50;1694876;84;21649;-38
2022/09/14 05:09:06;;;;;;;7.87;7.15;;;;;;;10.04;100.00;100005.66;1695169;84;21046;-38
2022/09/14 05:11:35;;;;;;;11.90;7.17;;;;;;;10.05;100.00;100001.33;1661650;86;20891;-38
2022/09/14 05:14:02;;;;;;;7.70;6.30;;;;;;;10.06;100.00;100009.48;1661629;85;21041;-37
2022/09/14 05:16:35;;;;;;;16.77;7.20;;;;;;;10.06;100.00;100010.35;1661585;86;21503;-38
2022/09/14 05:19:08;;;;;;;7.35;6.65;;;;;;;10.09;100.00;100007.28;1637026;86;21515;-39
2022/09/14 05:21:36;;;;;;;14.73;7.22;;;;;;;10.11;100.00;100011.98;1661795;86;21527;-38
2022/09/14 05:24:07;;;;;;;8.03;7.22;;;;;;;10.14;100.00;100013.20;1636810;86;20962;-38
2022/09/14 05:26:35;;;;;;;10.53;6.83;;;;;;;10.16;100.00;100014.00;1637702;86;20946;-39
2022/09/14 05:29:02;;;;;;;10.75;6.30;;;;;;;10.20;100.00;100020.80;1661760;85;21029;-38
2022/09/14 05:31:30;;;;;;;7.58;6.53;;;;;;;10.23;100.00;100021.18;1661756;86;20938;-37
2022/09/14 05:33:56;;;;;;;9.38;6.47;;;;;;;10.23;100.00;100016.87;1661672;86;21732;-37
2022/09/14 05:36:23;;;;;;;10.40;6.00;;;;;;;10.25;100.00;100016.39;1636723;86;21500;-38
2022/09/14 05:38:51;;;;;;;9.40;6.50;;;;;;;10.27;100.00;100020.22;1661585;86;20958;-39
2022/09/14 05:41:17;;;;;;;6.90;6.30;;;;;;;10.26;100.00;100015.50;1661751;86;20997;-38
2022/09/14 05:43:44;;;;;;;13.45;7.15;;;;;;;10.26;100.00;100018.09;1661818;85;21150;-38
2022/09/14 05:46:18;;;;;;;11.45;6.72;;;;;;;10.27;100.00;100027.55;1661724;86;21105;-38
2022/09/14 05:48:46;;;;;;;14.68;6.37;;;;;;;10.27;100.00;100024.96;1661605;86;21002;-39
2022/09/14 05:51:16;;;;;;;6.90;6.28;;;;;;;10.28;100.00;100035.72;1661651;86;21056;-38
2022/09/14 05:53:50;;;;;;;13.18;6.75;;;;;;;10.28;100.00;100022.78;1666864;86;21560;-38
2022/09/14 05:56:18;;;;;;;6.47;5.87;;;;;;;10.31;100.00;100031.75;1668527;85;20962;-38
2022/09/14 05:58:45;;;;;;;7.28;6.40;;;;;;;10.33;100.00;100036.87;1683375;84;21021;-37
2022/09/14 06:01:25;;;;;;;9.23;6.22;;;;;;;10.35;100.00;100040.27;1683026;85;20943;-37
2022/09/14 06:04:00;;;;;;;8.38;6.80;;;;;;;10.38;100.00;100040.66;1654870;86;20958;-38
2022/09/14 06:06:28;;;;;;;9.00;6.72;;;;;;;10.41;100.00;100049.23;1732968;82;21688;-38
2022/09/14 06:08:55;;;;;;;8.15;6.70;;;;;;;10.42;100.00;100043.61;1732804;82;21364;-38
2022/09/14 06:11:27;;;;;;;7.20;6.17;;;;;;;10.44;100.00;100050.88;1732706;82;21207;-38
2022/09/14 06:13:55;;;;;;;7.62;6.00;;;;;;;10.51;100.00;100057.63;1732634;82;20992;-38
2022/09/14 06:16:22;;;;;;;11.00;6.78;;;;;;;10.54;100.00;100052.38;1732778;82;20985;-38
2022/09/14 06:18:50;;;;;;;9.48;6.22;;;;;;;10.59;100.00;100058.28;1732786;82;22197;-38
2022/09/14 06:21:19;;;;;;;13.32;6.33;;;;;;;10.63;100.00;100057.31;1732828;82;20890;-38
2022/09/14 06:23:46;;;;;;;17.82;6.30;;;;;;;10.69;100.00;100054.16;1732652;82;21979;-37
2022/09/14 06:26:13;;;;;;;8.58;6.85;;;;;;;10.74;100.00;100060.09;1732751;82;20925;-37
2022/09/14 06:28:40;;;;;;;9.08;6.87;;;;;;;10.79;100.00;100062.11;1733028;82;21458;-39
2022/09/14 06:31:08;;;;;;;10.18;6.62;;;;;;;10.85;100.00;100060.66;1732891;82;20886;-38
2022/09/14 06:33:36;;;;;;;8.50;6.28;;;;;;;10.89;100.00;100057.55;1732880;82;20870;-38
2022/09/14 06:36:10;;;;;;;7.62;6.03;;;;;;;10.96;100.00;100065.55;1732758;82;21157;-38
2022/09/14 06:38:37;;;;;;;9.03;5.92;;;;;;;10.99;100.00;100065.90;1732659;82;20961;-38
2022/09/14 06:41:06;;;;;;;6.17;5.60;;;;;;;11.04;100.00;100062.31;1732782;82;21439;-38
2022/09/14 06:43:40;;;;;;;5.90;5.35;;;;;;;11.10;100.00;100062.59;1708196;82;20972;-39
2022/09/14 06:46:22;;;;;;;11.97;5.70;;;;;;;11.16;100.00;100064.18;1732717;82;20914;-38
2022/09/14 06:48:59;;;;;;;6.80;5.62;;;;;;;11.23;100.00;100062.25;1732879;82;21367;-38
2022/09/14 06:51:37;;;;;;;7.08;5.47;;;;;;;11.29;100.00;100061.64;1731883;82;21087;-39
2022/09/14 06:54:03;;;;;;;6.03;5.45;;;;;;;11.34;100.00;100071.42;1731863;82;20929;-38
2022/09/14 06:56:37;;;;;;;7.45;5.83;;;;;;;11.40;100.00;100060.52;1699314;83;21453;-38
2022/09/14 06:59:05;;;;;;;8.38;5.37;;;;;;;11.43;100.00;100056.07;1698437;83;20912;-38
2022/09/14 07:01:32;;;;;;;10.32;5.15;;;;;;;11.46;100.00;100063.75;1726750;82;21417;-38
2022/09/14 07:04:00;;;;;;;8.08;5.42;;;;;;;11.50;100.00;100062.80;1726731;83;21026;-38
2022/09/14 07:06:31;;;;;;;6.60;5.20;;;;;;;11.58;100.00;100062.56;1726808;82;20971;-39
2022/09/14 07:08:58;;;;;;;7.15;4.95;;;;;;;11.67;100.00;100069.69;1726658;83;21007;-38
2022/09/14 07:11:26;;;;;;;4.72;4.42;;;;;;;11.73;100.00;100073.39;1675288;83;20893;-38
2022/09/14 07:13:57;;;;;;;5.33;4.58;;;;;;;11.77;100.00;100060.73;1726768;83;21545;-38
2022/09/14 07:16:28;;;;;;;5.78;4.55;;;;;;;11.81;100.00;100072.70;1692034;84;20994;-39
2022/09/14 07:18:56;;;;;;;6.40;4.55;;;;;;;11.87;100.00;100068.66;1692277;84;20856;-39
2022/09/14 07:21:23;;;;;;;4.45;4.15;;;;;;;11.92;100.00;100068.06;1686326;85;21048;-39
2022/09/14 07:23:50;;;;;;;5.03;4.30;;;;;;;12.01;100.00;100065.67;1686432;85;21023;-37
2022/09/14 07:26:22;;;;;;;5.30;4.45;;;;;;;12.06;100.00;100059.89;1686412;85;21138;-36
2022/09/14 07:28:53;;;;;;;4.45;4.15;;;;;;;12.15;100.00;100057.46;1686270;85;21059;-36
2022/09/14 07:31:32;;;;;;;4.80;4.30;;;;;;;12.27;100.00;100061.42;1686495;85;21516;-37
2022/09/14 07:34:03;;;;;;;6.40;4.15;;;;;;;12.38;100.00;100058.92;1686138;84;21538;-37
2022/09/14 07:36:32;;;;;;;4.60;3.85;;;;;;;12.51;100.00;100058.94;1686520;85;20937;-38
2022/09/14 07:39:00;;;;;;;5.25;3.90;;;;;;;12.61;100.00;100060.31;1686325;85;21753;-37
2022/09/14 07:41:28;;;;;;;5.53;4.45;;;;;;;12.65;100.00;100056.70;1686459;85;20924;-37
2022/09/14 07:43:59;;;;;;;7.78;4.17;;;;;;;12.73;100.00;100046.50;1686429;85;21007;-38
2022/09/14 07:46:29;;;;;;;4.60;3.83;;;;;;;12.87;100.00;100052.09;1686715;85;21503;-38
2022/09/14 07:48:58;;;;;;;7.75;3.35;;;;;;;13.00;100.00;100059.44;1686487;85;20909;-38
2022/09/14 07:51:25;;;;;;;6.62;3.55;;;;;;;12.94;100.00;100060.52;1686408;85;21804;-38
2022/09/14 07:53:52;;;;;;;7.45;3.70;;;;;;;12.90;100.00;100060.23;1686403;83;21451;-38
2022/09/14 07:56:20;;;;;;;9.30;3.80;;;;;;;12.91;100.00;100061.94;1692759;84;21496;-37
2022/09/14 07:58:48;;;;;;;3.50;3.20;;;;;;;13.03;100.00;100067.16;1665685;85;20927;-37
2022/09/14 08:01:18;;;;;;;4.45;4.05;;;;;;;13.15;100.00;100066.71;1694971;84;20952;-37
2022/09/14 08:03:47;;;;;;;12.73;5.58;;;;;;;13.25;100.00;100068.97;1695170;84;21308;-38
2022/09/14 08:06:23;;;;;;;6.25;4.92;;;;;;;13.24;100.00;100068.14;1694789;84;20933;-37
2022/09/14 08:11:30;;;;;;;6.85;4.67;;;;;;;13.40;100.00;100071.03;1798446;79;22522;-38
2022/09/14 08:13:59;;;;;;;10.82;4.53;;;;;;;13.48;100.00;100062.98;1758118;80;21521;-38
2022/09/14 08:16:27;;;;;;;5.55;4.20;;;;;;;13.68;100.00;100050.53;1758227;81;21257;-38
2022/09/14 08:18:57;;;;;;;5.20;3.60;;;;;;;13.86;100.00;100047.67;1758208;81;20908;-38
2022/09/14 08:21:24;;;;;;;3.30;3.10;;;;;;;14.08;100.00;100045.55;1757387;81;20928;-38
2022/09/14 08:23:51;;;;;;;3.30;3.00;;;;;;;14.32;100.00;100043.73;1758173;81;20921;-38
2022/09/14 08:26:21;;;;;;;6.35;2.75;;;;;;;14.50;100.00;100045.16;1758057;81;20873;-38
2022/09/14 08:28:49;;;;;;;3.52;2.80;;;;;;;14.62;100.00;100043.37;1724599;83;21308;-38
2022/09/14 08:31:23;;;;;;;2.72;2.52;;;;;;;14.85;100.00;100044.63;1724822;83;20849;-38
2022/09/14 08:33:57;;;;;;;2.55;2.35;;;;;;;15.09;100.00;100041.43;1724350;83;20939;-38
2022/09/14 08:36:25;;;;;;;5.15;2.60;;;;;;;15.33;100.00;100043.39;1724245;83;20939;-37
2022/09/14 08:38:51;;;;;;;2.22;2.12;;;;;;;15.48;100.00;100057.50;1724597;83;20975;-37
2022/09/14 08:41:44;;;;;;;2.83;2.55;;;;;;;15.50;100.00;100057.45;1724619;83;21229;-37
2022/09/14 08:44:19;;;;;;;2.60;2.40;;;;;;;15.57;100.00;100058.84;1724586;83;20929;-37
2022/09/14 08:46:50;;;;;;;2.70;2.50;;;;;;;15.65;100.00;100059.81;1724424;83;20935;-38
2022/09/14 08:49:25;;;;;;;3.60;2.75;;;;;;;15.83;100.00;100059.88;1724581;83;20912;-38
2022/09/14 08:51:51;;;;;;;6.95;2.55;;;;;;;15.93;99.17;100063.77;1723851;83;20979;-38
2022/09/14 08:54:18;;;;;;;3.05;2.72;;;;;;;15.97;100.00;100071.02;1724481;83;22143;-38
2022/09/14 08:56:48;;;;;;;2.60;2.50;;;;;;;16.05;97.61;100074.09;1724554;83;20876;-38
2022/09/14 08:59:23;;;;;;;6.10;2.42;;;;;;;16.05;98.37;100069.73;1722253;83;21046;-38
2022/09/14 09:02:01;;;;;;;4.53;2.80;;;;;;;16.16;98.87;100070.97;1698636;84;20996;-37
2022/09/14 09:04:52;;;;;;;2.70;2.45;;;;;;;16.47;100.00;100060.34;1698501;84;21430;-38
2022/09/14 09:07:45;;;;;;;3.45;2.50;;;;;;;16.65;92.55;100063.34;1714915;83;21293;-38
2022/09/14 09:10:11;;;;;;;3.52;2.47;;;;;;;16.62;95.24;100060.89;1703290;83;21515;-37
2022/09/14 09:12:46;;;;;;;2.33;2.22;;;;;;;16.94;94.03;100064.11;1696739;84;21518;-37
2022/09/14 09:15:46;;;;;;;2.37;1.97;;;;;;;17.00;91.59;100054.67;1696612;83;20960;-36
2022/09/14 09:18:35;;;;;;;2.62;2.33;;;;;;;16.97;90.27;100051.33;1696805;84;21489;-38
2022/09/14 09:21:13;;;;;;;2.25;2.08;;;;;;;16.90;89.85;100058.19;1695595;84;21138;-38
2022/09/14 09:23:40;;;;;;;4.53;2.15;;;;;;;17.07;89.70;100057.34;1699811;84;20981;-36
2022/09/14 09:26:26;;;;;;;2.40;2.17;;;;;;;17.04;88.10;100057.50;1695908;84;21042;-37
2022/09/14 09:28:55;;;;;;;;;;;;;;;16.89;88.10;100056.50;1694348;84;20996;-38
2022/09/14 09:31:35;;;;;;;2.10;2.00;;;;;;;16.72;86.32;100056.05;1696331;84;20127;-37
2022/09/14 09:34:18;;;;;;;4.40;1.60;;;;;;;16.77;88.00;100047.95;1635845;84;21227;-37
2022/09/14 09:36:47;;;;;;;2.10;2.00;;;;;;;16.92;86.00;100049.80;1696028;84;20959;-38
2022/09/14 09:39:15;;;;;;;4.10;2.00;;;;;;;16.87;82.95;100050.50;1696129;84;21569;-37
2022/09/14 09:42:01;;;;;;;2.17;2.05;;;;;;;16.77;84.71;100050.57;1696081;84;20948;-38
2022/09/14 09:44:27;;;;;;;1.80;1.70;;;;;;;16.69;83.49;100056.21;1696482;84;21502;-36
2022/09/14 09:46:59;;;;;;;1.60;1.50;;;;;;;16.50;81.86;100053.65;1696084;84;21147;-36
2022/09/14 09:49:33;;;;;;;1.55;1.55;;;;;;;16.31;83.69;100050.66;1695983;84;21510;-37
2022/09/14 09:52:14;;;;;;;1.60;1.50;;;;;;;16.18;85.71;100052.16;1694964;84;21052;-38
2022/09/14 09:54:43;;;;;;;1.82;1.70;;;;;;;16.25;85.42;100048.33;1666361;84;20994;-37
2022/09/14 09:57:31;;;;;;;1.60;1.50;;;;;;;16.54;86.97;100043.91;1696266;84;21573;-37
2022/09/14 10:00:20;;;;;;;1.17;1.17;;;;;;;16.96;84.03;100040.04;1666000;84;21118;-37
2022/09/14 10:02:48;;;;;;;2.45;1.20;;;;;;;17.37;77.72;100038.34;1695882;84;20987;-38
2022/09/14 10:05:22;;;;;;;2.00;1.27;;;;;;;17.54;75.96;100037.90;1695922;83;20946;-38
2022/09/14 10:07:57;;;;;;;1.30;1.30;;;;;;;17.61;76.56;100039.73;1695937;84;20991;-37
2022/09/14 10:10:41;;;;;;;6.35;1.00;;;;;;;17.73;77.40;100035.59;1695388;83;20945;-38
2022/09/14 10:13:33;;;;;;;1.85;0.95;;;;;;;17.74;70.85;100044.66;1696066;84;21449;-38
2022/09/14 10:16:14;;;;;;;4.03;1.50;;;;;;;17.68;71.86;100043.69;1694355;84;21004;-39
2022/09/14 10:18:51;;;;;;;1.98;1.67;;;;;;;17.70;72.33;100045.75;1695975;83;20949;-37
2022/09/14 10:21:21;;;;;;;3.12;1.20;;;;;;;17.70;69.71;100037.08;1695869;84;20980;-38
2022/09/14 10:24:08;;;;;;;1.30;1.20;;;;;;;17.70;72.06;100037.91;1695710;84;20929;-38
2022/09/14 10:26:35;;;;;;;1.60;1.10;;;;;;;17.93;72.64;100035.79;1694524;84;21270;-38
2022/09/14 10:29:36;;;;;;;2.80;1.10;;;;;;;18.16;72.85;100031.06;1695671;83;21521;-38
2022/09/14 10:32:21;;;;;;;1.12;1.12;;;;;;;18.24;71.80;100040.63;1694657;84;20912;-38
2022/09/14 10:34:49;;;;;;;2.00;1.40;;;;;;;18.24;71.17;100041.93;1696081;84;21029;-38
2022/09/14 10:37:26;;;;;;;1.00;1.00;;;;;;;17.94;70.19;100041.40;1695903;84;20964;-38
2022/09/14 10:40:15;;;;;;;1.30;1.30;;;;;;;17.77;70.30;100037.94;1695454;84;22186;-37
2022/09/14 10:42:57;;;;;;;3.00;1.30;;;;;;;17.75;69.98;100038.48;1695870;84;21490;-38
2022/09/14 10:45:34;;;;;;;3.70;1.30;;;;;;;17.70;71.94;100035.28;1695866;84;20964;-38
2022/09/14 10:48:24;;;;;;;3.25;1.12;;;;;;;17.71;70.64;100038.77;1695917;84;21558;-38
2022/09/14 10:51:05;;;;;;;3.65;1.00;;;;;;;17.71;73.11;100039.59;1695862;84;21591;-38
2022/09/14 10:53:57;;;;;;;3.42;1.00;;;;;;;17.89;71.86;100033.80;1696008;83;21164;-38
2022/09/14 10:56:49;;;;;;;2.25;1.02;;;;;;;18.12;69.61;100040.03;1695948;84;21431;-38
2022/09/14 10:59:38;;;;;;;1.15;0.90;;;;;;;18.03;68.20;100039.59;1695522;84;21028;-38
2022/09/14 11:02:25;;;;;;;3.65;1.27;;;;;;;17.92;68.39;100036.23;1695951;84;20953;-38
2022/09/14 11:05:23;;;;;;;2.15;1.05;;;;;;;17.94;68.43;100040.09;1696338;84;21506;-38
2022/09/14 11:08:05;;;;;;;5.40;1.22;;;;;;;18.01;68.27;100037.98;1695967;84;21342;-37
2022/09/14 11:10:57;;;;;;;0.98;0.98;;;;;;;18.04;65.46;100041.77;1697542;83;20925;-37
2022/09/14 11:13:54;;;;;;;0.88;0.82;;;;;;;18.12;66.51;100040.03;1708586;83;20984;-37
2022/09/14 11:16:56;;;;;;;1.00;1.00;;;;;;;18.31;66.38;100029.33;1701605;84;21557;-38
2022/09/14 11:19:40;;;;;;;2.83;1.25;;;;;;;18.38;67.49;100021.03;1710748;83;20881;-38
2022/09/14 11:22:35;;;;;;;1.00;1.00;;;;;;;18.46;67.62;100023.22;1699552;83;21496;-37
2022/09/14 11:25:20;;;;;;;1.00;1.00;;;;;;;18.69;67.82;100025.41;1711012;83;20999;-38
2022/09/14 11:27:57;;;;;;;0.90;0.90;;;;;;;18.80;65.80;100038.70;1701733;84;21516;-38
2022/09/14 11:30:44;;;;;;;1.00;1.00;;;;;;;18.67;64.07;100031.58;1711033;83;20915;-38
2022/09/14 11:33:37;;;;;;;1.10;1.10;;;;;;;18.63;65.18;100029.22;1683126;84;21004;-39
2022/09/14 11:36:15;;;;;;;1.85;0.90;;;;;;;18.55;65.19;100028.36;1685621;85;21807;-38
2022/09/14 11:39:06;;;;;;;1.25;0.80;;;;;;;18.62;67.65;100027.54;1684661;83;22020;-38
2022/09/14 11:42:02;;;;;;;2.17;0.95;;;;;;;18.69;65.32;100014.44;1700940;84;20940;-38
2022/09/14 11:44:39;;;;;;;1.00;1.00;;;;;;;18.80;67.09;100020.35;1711358;83;20912;-38
2022/09/14 11:47:18;;;;;;;2.58;1.15;;;;;;;18.81;65.71;100019.41;1701469;84;21039;-40
2022/09/14 11:49:56;;;;;;;1.12;1.10;;;;;;;18.79;66.04;100016.91;1711022;83;21282;-39
2022/09/14 11:52:29;;;;;;;3.02;1.05;;;;;;;18.77;64.55;100021.84;1701666;84;21434;-39